Ship Status Report: callsign BAREU62

sailwx.info

Track history (hours):
 
Tides and Currents Weather Stations Pressure Air Temp Water Temp Dewpoint Dewpoint Depression Visibility Wind Speed Wind Dir Waves Ship Positions

Callsign BAREU62 (name unknown)

Last reported at 2017-Oct-26 11:00 UTC. Time now 2017-Nov-22 09:20 UTC.
Position N 39°12' E 025°24'.
Warning: this ship's position is 26 days out of date.

Barometer 1022.9 mb

Date/timePositionNaut miles runAvg speedWind from/ knotsBaromVisibWave heightAir tempDewpointWater temp
2017-Oct-26 11:00N 39°12' E 025°24'1312.9 1022.9
2017-Oct-26 10:00N 39°00' E 025°18'1312.9 1023.3
2017-Oct-26 09:00N 38°48' E 025°12'1312.9 1023.0
2017-Oct-26 08:00N 38°36' E 025°06'1515.2 1023.0
2017-Oct-26 07:00N 38°24' E 024°54'1312.9 1023.3
2017-Oct-26 06:00N 38°12' E 024°48'8 7.6 1022.8
2017-Oct-26 05:00N 38°06' E 024°42'1312.9 1020.7
2017-Oct-26 04:00N 37°54' E 024°36'1312.9 1019.6
2017-Oct-26 03:00N 37°42' E 024°30'8 7.7 1019.2
2017-Oct-26 02:00N 37°36' E 024°24'1312.9 1018.8
2017-Oct-26 01:00N 37°24' E 024°18'1312.9 1019.3
2017-Oct-26 00:00N 37°12' E 024°12'1111.3 1019.2
2017-Oct-25 23:00N 37°06' E 024°00'8 7.7 1018.2
2017-Oct-25 22:00N 37°00' E 023°54'1515.4 1016.7
2017-Oct-25 21:00N 36°48' E 023°42'1312.9 1017.3
2017-Oct-25 20:00N 36°36' E 023°36'1111.4 1016.3
2017-Oct-25 19:00N 36°30' E 023°24'1111.4 1017.5
2017-Oct-25 18:00N 36°24' E 023°12'10 9.7 1016.9
2017-Oct-25 17:00N 36°24' E 023°00'1414.5 1016.0
2017-Oct-25 16:00N 36°24' E 022°42'1111.4 1013.9
2017-Oct-25 15:00N 36°18' E 022°30'1111.4 1012.2
2017-Oct-25 14:00N 36°24' E 022°18'1111.4 1011.4
2017-Oct-25 13:00N 36°30' E 022°06'1615.7 1011.6
2017-Oct-25 12:00N 36°36' E 021°48'1111.3 1011.0
2017-Oct-25 11:00N 36°42' E 021°36'1515.4 1010.1
2017-Oct-25 10:00N 36°54' E 021°24'1312.9 1011.1
2017-Oct-25 09:00N 37°06' E 021°18'1111.3 1010.8
2017-Oct-25 08:00N 37°12' E 021°06'1312.9 1010.0
2017-Oct-25 07:00N 37°24' E 021°00'1111.3 1009.5
2017-Oct-25 06:00N 37°30' E 020°48'1515.3 1008.5
2017-Oct-25 05:00N 37°42' E 020°36'1515.3 1008.3
2017-Oct-25 04:00N 37°54' E 020°24'8 7.6 1007.1
2017-Oct-25 03:00N 38°00' E 020°18'1515.3 1007.8
2017-Oct-25 02:00N 38°12' E 020°06'1312.9 1007.2
2017-Oct-25 01:00N 38°24' E 020°00'8 7.6 1007.0
2017-Oct-25 00:00N 38°30' E 019°54'1515.2 1006.9
2017-Oct-24 23:00N 38°42' E 019°42'1312.9 1006.9
2017-Oct-24 22:00N 38°54' E 019°36'1515.2 1007.2
2017-Oct-24 21:00N 39°06' E 019°24'1312.9 1007.2
2017-Oct-24 20:00N 39°18' E 019°18'1515.2 1007.6
2017-Oct-24 19:00N 39°30' E 019°06'8 7.6 1007.2
2017-Oct-24 18:00N 39°36' E 019°00'1312.9 1007.2
2017-Oct-24 17:00N 39°48' E 018°54'1312.9 1007.2
2017-Oct-24 16:00N 40°00' E 018°48'2020.2 1006.9
2017-Oct-24 15:00N 40°18' E 018°36'1110.9 1006.5
2017-Oct-24 14:00N 40°24' E 018°24'1515.1 1006.9
2017-Oct-24 13:00N 40°36' E 018°12'1515.1 1007.5
2017-Oct-24 12:00N 40°48' E 018°00'1514.9 1007.6
2017-Oct-24 11:00N 40°54' E 017°42'1515.0 1007.6
2017-Oct-24 10:00N 41°06' E 017°30'1514.8 1008.7
2017-Oct-24 09:00N 41°12' E 017°12'1515.0 1009.2
2017-Oct-24 08:00N 41°24' E 017°00'1110.8 1009.6
2017-Oct-24 07:00N 41°30' E 016°48'1312.8 1009.7
2017-Oct-24 06:00N 41°42' E 016°42'1515.0 1009.1
2017-Oct-24 05:00N 41°54' E 016°30'1110.8 1008.9
2017-Oct-24 04:00N 42°00' E 016°18'1514.9 1008.9
2017-Oct-24 03:00N 42°12' E 016°06'1514.9 1009.6
2017-Oct-24 02:00N 42°24' E 015°54'1110.7 1009.7
2017-Oct-24 01:00N 42°30' E 015°42'1110.7 1010.2
2017-Oct-24 00:00N 42°36' E 015°30'1817.9 1011.2
2017-Oct-23 23:00N 42°48' E 015°12'1110.6 1011.7
2017-Oct-23 22:00N 42°54' E 015°00'1110.6 1012.5
2017-Oct-23 21:00N 43°00' E 014°48'1514.9 1012.7
2017-Oct-23 20:00N 43°12' E 014°36'1414.4 1012.9
2017-Oct-23 19:00N 43°18' E 014°18'1514.8 1013.4
2017-Oct-23 18:00N 43°30' E 014°06'1414.4 1013.4
2017-Oct-23 17:00N 43°36' E 013°48'1110.6 1013.4
2017-Oct-23 16:00N 43°42' E 013°36'4 0.5 1012.9
2017-Oct-23 08:00N 43°42' E 013°30'0 0.0 1013.1
2017-Oct-23 04:00N 43°42' E 013°30'0 0.0 1008.8
2017-Oct-23 01:00N 43°42' E 013°30'0 0.0 1004.7
2017-Oct-22 20:00N 43°42' E 013°30'0 0.0 1008.1
2017-Oct-22 06:00N 43°42' E 013°30'1110.5 1015.1
2017-Oct-22 05:00N 43°48' E 013°42'7 7.4 1015.1
2017-Oct-22 04:00N 43°54' E 013°48'4 4.3 1016.1
2017-Oct-22 03:00N 43°54' E 013°42'1514.8 1016.3
2017-Oct-22 02:00N 44°06' E 013°30'1010.5 1017.0
2017-Oct-22 01:00N 44°12' E 013°18'1514.8 1017.7
2017-Oct-22 00:00N 44°24' E 013°06'6 6.0 1018.2
2017-Oct-21 23:00N 44°30' E 013°06'1312.7 1018.6
2017-Oct-21 22:00N 44°42' E 013°00'1312.7 1019.2
2017-Oct-21 21:00N 44°54' E 012°54'1514.7 1019.4
2017-Oct-21 20:00N 45°06' E 012°42'1010.4 1019.6
2017-Oct-21 19:00N 45°12' E 012°30'7 7.3 1019.7
2017-Oct-21 18:00N 45°18' E 012°24'7 7.3 1019.9
2017-Oct-21 17:00N 45°24' E 012°18'6 0.2 1020.1
2017-Oct-20 11:00N 45°30' E 012°18'6 1.0 1021.6
2017-Oct-20 05:00N 45°24' E 012°18'7 7.3 1019.6
2017-Oct-20 04:00N 45°18' E 012°24'0 0.0 1019.5
2017-Oct-19 23:00N 45°18' E 012°24'4 4.2 1019.4
2017-Oct-19 22:00N 45°18' E 012°30'1414.0 1019.1
2017-Oct-19 21:00N 45°24' E 012°48'1414.0 1019.1
2017-Oct-19 20:00N 45°30' E 013°06'1010.3 1019.2
2017-Oct-19 19:00N 45°36' E 013°18'1312.6 1019.1
2017-Oct-19 18:00N 45°36' E 013°36'4 0.4 1019.1
2017-Oct-19 07:00N 45°36' E 013°42'0 0.0 1019.5
2017-Oct-19 01:00N 45°36' E 013°42'0 0.0 1019.3
2017-Oct-18 20:00N 45°36' E 013°42'0 0.0 1019.4
2017-Oct-18 16:00N 45°36' E 013°42'4 0.4 1018.9
2017-Oct-18 05:00N 45°36' E 013°36'1010.3 1020.5
2017-Oct-18 04:00N 45°30' E 013°24'4 4.2 1020.8
2017-Oct-18 03:00N 45°30' E 013°18'1312.7 1020.9
2017-Oct-18 02:00N 45°18' E 013°12'7 7.3 1021.1
2017-Oct-18 01:00N 45°12' E 013°18'1312.7 1021.6
2017-Oct-18 00:00N 45°00' E 013°24'1312.7 1022.0
2017-Oct-17 23:00N 44°48' E 013°30'1514.7 1022.1
2017-Oct-17 22:00N 44°36' E 013°42'1312.7 1022.6
2017-Oct-17 21:00N 44°24' E 013°48'1010.5 1022.9
2017-Oct-17 20:00N 44°18' E 014°00'1514.8 1023.1
2017-Oct-17 19:00N 44°06' E 014°12'1514.8 1023.2
2017-Oct-17 18:00N 43°54' E 014°24'1312.8 1023.3
2017-Oct-17 17:00N 43°42' E 014°30'1110.6 1023.2
2017-Oct-17 16:00N 43°36' E 014°42'1514.8 1023.2
2017-Oct-17 15:00N 43°24' E 014°54'1514.8 1023.4
2017-Oct-17 14:00N 43°12' E 015°06'1514.9 1023.7
2017-Oct-17 13:00N 43°00' E 015°18'1110.6 1024.2
2017-Oct-17 12:00N 42°54' E 015°30'1514.9 1024.8
2017-Oct-17 11:00N 42°42' E 015°42'1110.7 1025.6
2017-Oct-17 10:00N 42°36' E 015°54'1514.9 1026.1
2017-Oct-17 09:00N 42°24' E 016°06'7 7.5 1026.2
2017-Oct-17 08:00N 42°18' E 016°12'1110.7 1026.2
2017-Oct-17 07:00N 42°12' E 016°24'7 7.5 1025.9
2017-Oct-17 06:00N 42°06' E 016°30'1515.0 1025.4
2017-Oct-17 05:00N 41°54' E 016°42'1110.8 1025.1
2017-Oct-17 04:00N 41°48' E 016°54'7 7.5 1025.2
2017-Oct-17 03:00N 41°42' E 017°00'1515.0 1024.9
2017-Oct-17 02:00N 41°30' E 017°12'1110.8 1025.1
2017-Oct-17 01:00N 41°24' E 017°24'1515.0 1025.5
2017-Oct-17 00:00N 41°12' E 017°36'1110.8 1025.9
2017-Oct-16 23:00N 41°06' E 017°48'1312.8 1026.1
2017-Oct-16 22:00N 40°54' E 017°54'1110.9 1026.3
2017-Oct-16 21:00N 40°48' E 018°06'1515.1 1026.2
2017-Oct-16 20:00N 40°36' E 018°18'8 7.5 1026.2
2017-Oct-16 19:00N 40°30' E 018°24'1515.1 1026.1
2017-Oct-16 18:00N 40°18' E 018°36'6 6.0 1026.0
2017-Oct-16 17:00N 40°12' E 018°36'1212.0 1025.6
2017-Oct-16 16:00N 40°00' E 018°36'1312.9 1025.1
2017-Oct-16 15:00N 39°48' E 018°30'1312.9 1024.8
2017-Oct-16 14:00N 39°36' E 018°24'1312.9 1025.5
2017-Oct-16 13:00N 39°24' E 018°18'1312.9 1026.4
2017-Oct-16 12:00N 39°12' E 018°12'1312.9 1026.3
2017-Oct-16 11:00N 39°00' E 018°06'   1026.7
Track history (hours):
 
Tides and Currents Weather Stations Pressure Air Temp Water Temp Dewpoint Dewpoint Depression Visibility Wind Speed Wind Dir Waves Ship Positions

Callsign BAREU62 (name unknown)

Last reported at 2017-Oct-26 11:00 UTC. Time now 2017-Nov-22 09:20 UTC.
Position N 39°12' E 025°24'.
Warning: this ship's position is 26 days out of date.

Barometer 1022.9 mb

Date/timePositionNaut miles runAvg speedWind from/ knotsBaromVisibWave heightAir tempDewpointWater temp
2017-Oct-26 11:00N 39°12' E 025°24'1312.9 1022.9
2017-Oct-26 10:00N 39°00' E 025°18'1312.9 1023.3
2017-Oct-26 09:00N 38°48' E 025°12'1312.9 1023.0
2017-Oct-26 08:00N 38°36' E 025°06'1515.2 1023.0
2017-Oct-26 07:00N 38°24' E 024°54'1312.9 1023.3
2017-Oct-26 06:00N 38°12' E 024°48'8 7.6 1022.8
2017-Oct-26 05:00N 38°06' E 024°42'1312.9 1020.7
2017-Oct-26 04:00N 37°54' E 024°36'1312.9 1019.6
2017-Oct-26 03:00N 37°42' E 024°30'8 7.7 1019.2
2017-Oct-26 02:00N 37°36' E 024°24'1312.9 1018.8
2017-Oct-26 01:00N 37°24' E 024°18'1312.9 1019.3
2017-Oct-26 00:00N 37°12' E 024°12'1111.3 1019.2
2017-Oct-25 23:00N 37°06' E 024°00'8 7.7 1018.2
2017-Oct-25 22:00N 37°00' E 023°54'1515.4 1016.7
2017-Oct-25 21:00N 36°48' E 023°42'1312.9 1017.3
2017-Oct-25 20:00N 36°36' E 023°36'1111.4 1016.3
2017-Oct-25 19:00N 36°30' E 023°24'1111.4 1017.5
2017-Oct-25 18:00N 36°24' E 023°12'10 9.7 1016.9
2017-Oct-25 17:00N 36°24' E 023°00'1414.5 1016.0
2017-Oct-25 16:00N 36°24' E 022°42'1111.4 1013.9
2017-Oct-25 15:00N 36°18' E 022°30'1111.4 1012.2
2017-Oct-25 14:00N 36°24' E 022°18'1111.4 1011.4
2017-Oct-25 13:00N 36°30' E 022°06'1615.7 1011.6
2017-Oct-25 12:00N 36°36' E 021°48'1111.3 1011.0
2017-Oct-25 11:00N 36°42' E 021°36'1515.4 1010.1
2017-Oct-25 10:00N 36°54' E 021°24'1312.9 1011.1
2017-Oct-25 09:00N 37°06' E 021°18'1111.3 1010.8
2017-Oct-25 08:00N 37°12' E 021°06'1312.9 1010.0
2017-Oct-25 07:00N 37°24' E 021°00'1111.3 1009.5
2017-Oct-25 06:00N 37°30' E 020°48'1515.3 1008.5
2017-Oct-25 05:00N 37°42' E 020°36'1515.3 1008.3
2017-Oct-25 04:00N 37°54' E 020°24'8 7.6 1007.1
2017-Oct-25 03:00N 38°00' E 020°18'1515.3 1007.8
2017-Oct-25 02:00N 38°12' E 020°06'1312.9 1007.2
2017-Oct-25 01:00N 38°24' E 020°00'8 7.6 1007.0
2017-Oct-25 00:00N 38°30' E 019°54'1515.2 1006.9
2017-Oct-24 23:00N 38°42' E 019°42'1312.9 1006.9
2017-Oct-24 22:00N 38°54' E 019°36'1515.2 1007.2
2017-Oct-24 21:00N 39°06' E 019°24'1312.9 1007.2
2017-Oct-24 20:00N 39°18' E 019°18'1515.2 1007.6
2017-Oct-24 19:00N 39°30' E 019°06'8 7.6 1007.2
2017-Oct-24 18:00N 39°36' E 019°00'1312.9 1007.2
2017-Oct-24 17:00N 39°48' E 018°54'1312.9 1007.2
2017-Oct-24 16:00N 40°00' E 018°48'2020.2 1006.9
2017-Oct-24 15:00N 40°18' E 018°36'1110.9 1006.5
2017-Oct-24 14:00N 40°24' E 018°24'1515.1 1006.9
2017-Oct-24 13:00N 40°36' E 018°12'1515.1 1007.5
2017-Oct-24 12:00N 40°48' E 018°00'1514.9 1007.6
2017-Oct-24 11:00N 40°54' E 017°42'1515.0 1007.6
2017-Oct-24 10:00N 41°06' E 017°30'1514.8 1008.7
2017-Oct-24 09:00N 41°12' E 017°12'1515.0 1009.2
2017-Oct-24 08:00N 41°24' E 017°00'1110.8 1009.6
2017-Oct-24 07:00N 41°30' E 016°48'1312.8 1009.7
2017-Oct-24 06:00N 41°42' E 016°42'1515.0 1009.1
2017-Oct-24 05:00N 41°54' E 016°30'1110.8 1008.9
2017-Oct-24 04:00N 42°00' E 016°18'1514.9 1008.9
2017-Oct-24 03:00N 42°12' E 016°06'1514.9 1009.6
2017-Oct-24 02:00N 42°24' E 015°54'1110.7 1009.7
2017-Oct-24 01:00N 42°30' E 015°42'1110.7 1010.2
2017-Oct-24 00:00N 42°36' E 015°30'1817.9 1011.2
2017-Oct-23 23:00N 42°48' E 015°12'1110.6 1011.7
2017-Oct-23 22:00N 42°54' E 015°00'1110.6 1012.5
2017-Oct-23 21:00N 43°00' E 014°48'1514.9 1012.7
2017-Oct-23 20:00N 43°12' E 014°36'1414.4 1012.9
2017-Oct-23 19:00N 43°18' E 014°18'1514.8 1013.4
2017-Oct-23 18:00N 43°30' E 014°06'1414.4 1013.4
2017-Oct-23 17:00N 43°36' E 013°48'1110.6 1013.4
2017-Oct-23 16:00N 43°42' E 013°36'4 0.5 1012.9
2017-Oct-23 08:00N 43°42' E 013°30'0 0.0 1013.1
2017-Oct-23 04:00N 43°42' E 013°30'0 0.0 1008.8
2017-Oct-23 01:00N 43°42' E 013°30'0 0.0 1004.7
2017-Oct-22 20:00N 43°42' E 013°30'0 0.0 1008.1
2017-Oct-22 06:00N 43°42' E 013°30'1110.5 1015.1
2017-Oct-22 05:00N 43°48' E 013°42'7 7.4 1015.1
2017-Oct-22 04:00N 43°54' E 013°48'4 4.3 1016.1
2017-Oct-22 03:00N 43°54' E 013°42'1514.8 1016.3
2017-Oct-22 02:00N 44°06' E 013°30'1010.5 1017.0
2017-Oct-22 01:00N 44°12' E 013°18'1514.8 1017.7
2017-Oct-22 00:00N 44°24' E 013°06'6 6.0 1018.2
2017-Oct-21 23:00N 44°30' E 013°06'1312.7 1018.6
2017-Oct-21 22:00N 44°42' E 013°00'1312.7 1019.2
2017-Oct-21 21:00N 44°54' E 012°54'1514.7 1019.4
2017-Oct-21 20:00N 45°06' E 012°42'1010.4 1019.6
2017-Oct-21 19:00N 45°12' E 012°30'7 7.3 1019.7
2017-Oct-21 18:00N 45°18' E 012°24'7 7.3 1019.9
2017-Oct-21 17:00N 45°24' E 012°18'6 0.2 1020.1
2017-Oct-20 11:00N 45°30' E 012°18'6 1.0 1021.6
2017-Oct-20 05:00N 45°24' E 012°18'7 7.3 1019.6
2017-Oct-20 04:00N 45°18' E 012°24'0 0.0 1019.5
2017-Oct-19 23:00N 45°18' E 012°24'4 4.2 1019.4
2017-Oct-19 22:00N 45°18' E 012°30'1414.0 1019.1
2017-Oct-19 21:00N 45°24' E 012°48'1414.0 1019.1
2017-Oct-19 20:00N 45°30' E 013°06'1010.3 1019.2
2017-Oct-19 19:00N 45°36' E 013°18'1312.6 1019.1
2017-Oct-19 18:00N 45°36' E 013°36'4 0.4 1019.1
2017-Oct-19 07:00N 45°36' E 013°42'0 0.0 1019.5
2017-Oct-19 01:00N 45°36' E 013°42'0 0.0 1019.3
2017-Oct-18 20:00N 45°36' E 013°42'0 0.0 1019.4
2017-Oct-18 16:00N 45°36' E 013°42'4 0.4 1018.9
2017-Oct-18 05:00N 45°36' E 013°36'1010.3 1020.5
2017-Oct-18 04:00N 45°30' E 013°24'4 4.2 1020.8
2017-Oct-18 03:00N 45°30' E 013°18'1312.7 1020.9
2017-Oct-18 02:00N 45°18' E 013°12'7 7.3 1021.1
2017-Oct-18 01:00N 45°12' E 013°18'1312.7 1021.6
2017-Oct-18 00:00N 45°00' E 013°24'1312.7 1022.0
2017-Oct-17 23:00N 44°48' E 013°30'1514.7 1022.1
2017-Oct-17 22:00N 44°36' E 013°42'1312.7 1022.6
2017-Oct-17 21:00N 44°24' E 013°48'1010.5 1022.9
2017-Oct-17 20:00N 44°18' E 014°00'1514.8 1023.1
2017-Oct-17 19:00N 44°06' E 014°12'1514.8 1023.2
2017-Oct-17 18:00N 43°54' E 014°24'1312.8 1023.3
2017-Oct-17 17:00N 43°42' E 014°30'1110.6 1023.2
2017-Oct-17 16:00N 43°36' E 014°42'1514.8 1023.2
2017-Oct-17 15:00N 43°24' E 014°54'1514.8 1023.4
2017-Oct-17 14:00N 43°12' E 015°06'1514.9 1023.7
2017-Oct-17 13:00N 43°00' E 015°18'1110.6 1024.2
2017-Oct-17 12:00N 42°54' E 015°30'1514.9 1024.8
2017-Oct-17 11:00N 42°42' E 015°42'1110.7 1025.6
2017-Oct-17 10:00N 42°36' E 015°54'1514.9 1026.1
2017-Oct-17 09:00N 42°24' E 016°06'7 7.5 1026.2
2017-Oct-17 08:00N 42°18' E 016°12'1110.7 1026.2
2017-Oct-17 07:00N 42°12' E 016°24'7 7.5 1025.9
2017-Oct-17 06:00N 42°06' E 016°30'1515.0 1025.4
2017-Oct-17 05:00N 41°54' E 016°42'1110.8 1025.1
2017-Oct-17 04:00N 41°48' E 016°54'7 7.5 1025.2
2017-Oct-17 03:00N 41°42' E 017°00'1515.0 1024.9
2017-Oct-17 02:00N 41°30' E 017°12'1110.8 1025.1
2017-Oct-17 01:00N 41°24' E 017°24'1515.0 1025.5
2017-Oct-17 00:00N 41°12' E 017°36'1110.8 1025.9
2017-Oct-16 23:00N 41°06' E 017°48'1312.8 1026.1
2017-Oct-16 22:00N 40°54' E 017°54'1110.9 1026.3
2017-Oct-16 21:00N 40°48' E 018°06'1515.1 1026.2
2017-Oct-16 20:00N 40°36' E 018°18'8 7.5 1026.2
2017-Oct-16 19:00N 40°30' E 018°24'1515.1 1026.1
2017-Oct-16 18:00N 40°18' E 018°36'6 6.0 1026.0
2017-Oct-16 17:00N 40°12' E 018°36'1212.0 1025.6
2017-Oct-16 16:00N 40°00' E 018°36'1312.9 1025.1
2017-Oct-16 15:00N 39°48' E 018°30'1312.9 1024.8
2017-Oct-16 14:00N 39°36' E 018°24'1312.9 1025.5
2017-Oct-16 13:00N 39°24' E 018°18'1312.9 1026.4
2017-Oct-16 12:00N 39°12' E 018°12'1312.9 1026.3
2017-Oct-16 11:00N 39°00' E 018°06'   1026.7

Dump ship's entire track history